createdAt,value
2023-07-18T00:00:15.757Z,17.90
2023-07-18T00:03:17.587Z,17.80
2023-07-18T00:06:19.759Z,17.80
2023-07-18T00:09:22.654Z,17.70
2023-07-18T00:12:24.416Z,17.70
2023-07-18T00:15:26.716Z,17.70
2023-07-18T00:18:28.735Z,17.70
2023-07-18T00:21:30.421Z,17.60
2023-07-18T00:24:32.056Z,17.60
2023-07-18T00:27:33.653Z,17.50
2023-07-18T00:30:35.264Z,17.50
2023-07-18T00:33:37.356Z,17.50
2023-07-18T00:36:38.977Z,17.40
2023-07-18T00:39:40.606Z,17.40
2023-07-18T00:42:44.988Z,17.40
2023-07-18T00:45:50.384Z,17.40
2023-07-18T00:48:52.185Z,17.30
2023-07-18T00:51:53.808Z,17.20
2023-07-18T00:54:55.437Z,17.20
2023-07-18T00:57:58.656Z,17.10
2023-07-18T01:01:01.631Z,17.00
2023-07-18T01:04:03.598Z,16.90
2023-07-18T01:07:06.066Z,16.80
2023-07-18T01:10:27.459Z,16.80
2023-07-18T01:13:29.101Z,16.70
2023-07-18T01:16:31.050Z,16.60
2023-07-18T01:19:32.674Z,16.60
2023-07-18T01:22:34.713Z,16.60
2023-07-18T01:25:37.713Z,16.50
2023-07-18T01:28:39.624Z,16.40
2023-07-18T01:31:41.325Z,16.30
2023-07-18T01:34:42.957Z,16.30
2023-07-18T01:37:47.661Z,16.20
2023-07-18T01:40:49.327Z,16.20
2023-07-18T01:43:51.017Z,16.10
2023-07-18T01:46:52.751Z,16.00
2023-07-18T01:49:54.539Z,15.90
2023-07-18T01:52:56.162Z,15.80
2023-07-18T01:55:59.491Z,15.70
2023-07-18T01:59:01.127Z,15.70
2023-07-18T02:02:07.377Z,15.60
2023-07-18T02:05:09.500Z,15.60
2023-07-18T02:08:11.109Z,15.50
2023-07-18T02:11:12.747Z,15.50
2023-07-18T02:14:16.566Z,15.30
2023-07-18T02:17:18.268Z,15.30
2023-07-18T02:20:19.938Z,15.30
2023-07-18T02:23:21.549Z,15.20
2023-07-18T02:26:23.180Z,15.20
2023-07-18T02:29:26.926Z,15.20
2023-07-18T02:32:31.917Z,15.20
2023-07-18T02:35:33.623Z,15.20
2023-07-18T02:38:35.293Z,15.20
2023-07-18T02:41:37.916Z,15.20
2023-07-18T02:44:39.589Z,15.10
2023-07-18T02:47:41.335Z,15.00
2023-07-18T02:50:42.963Z,15.00
2023-07-18T02:53:44.677Z,15.10
2023-07-18T02:56:46.341Z,15.10
2023-07-18T02:59:47.977Z,15.00
2023-07-18T03:02:50.478Z,14.90
2023-07-18T03:05:53.838Z,14.90
2023-07-18T03:08:55.441Z,14.80
2023-07-18T03:11:57.105Z,14.70
2023-07-18T03:14:59.234Z,14.80
2023-07-18T03:18:01.123Z,14.80
2023-07-18T03:21:03.198Z,14.70
2023-07-18T03:24:11.306Z,14.60
2023-07-18T03:27:14.224Z,14.40
2023-07-18T03:30:15.886Z,14.20
2023-07-18T03:33:17.608Z,14.20
2023-07-18T03:36:21.546Z,14.10
2023-07-18T03:39:23.490Z,14.10
2023-07-18T03:42:25.239Z,14.10
2023-07-18T03:45:26.941Z,14.20
2023-07-18T03:48:31.332Z,14.20
2023-07-18T03:51:34.043Z,14.10
2023-07-18T03:54:39.258Z,14.10
2023-07-18T03:57:41.562Z,14.20
2023-07-18T04:00:43.239Z,14.10
2023-07-18T04:03:44.981Z,14.10
2023-07-18T04:06:46.653Z,14.10
2023-07-18T04:09:48.291Z,14.30
2023-07-18T04:12:49.989Z,14.50
2023-07-18T04:15:52.892Z,14.70
2023-07-18T04:18:55.151Z,14.90
2023-07-18T04:21:56.956Z,15.20
2023-07-18T04:24:59.859Z,15.40
2023-07-18T04:28:04.643Z,15.70
2023-07-18T04:31:07.340Z,16.10
2023-07-18T04:34:08.974Z,16.50
2023-07-18T04:37:10.622Z,16.70
2023-07-18T04:40:12.620Z,17.00
2023-07-18T04:43:14.267Z,17.30
2023-07-18T04:46:16.494Z,17.50
2023-07-18T04:49:19.217Z,17.80
2023-07-18T04:52:20.886Z,17.80
2023-07-18T04:55:22.884Z,17.90
2023-07-18T04:58:28.955Z,18.10
2023-07-18T05:01:30.609Z,18.20
2023-07-18T05:04:32.369Z,18.20
2023-07-18T05:07:33.989Z,18.20
2023-07-18T05:10:35.810Z,18.30
2023-07-18T05:13:37.465Z,18.20
2023-07-18T05:16:39.745Z,18.20
2023-07-18T05:19:41.578Z,18.50
2023-07-18T05:22:46.687Z,18.70
2023-07-18T05:25:48.909Z,18.70
2023-07-18T05:28:50.605Z,18.70
2023-07-18T05:31:52.294Z,18.60
2023-07-18T05:34:54.394Z,18.40
2023-07-18T05:37:57.237Z,18.40
2023-07-18T05:40:58.858Z,18.40
2023-07-18T05:44:00.682Z,18.40
2023-07-18T05:47:02.595Z,18.60
2023-07-18T05:50:05.773Z,18.70
2023-07-18T05:53:07.620Z,18.90
2023-07-18T05:56:09.732Z,18.90
2023-07-18T05:59:11.505Z,19.10
2023-07-18T06:02:14.969Z,19.20
2023-07-18T06:05:16.725Z,19.20
2023-07-18T06:08:18.393Z,19.30
2023-07-18T06:11:20.254Z,19.20
2023-07-18T06:14:22.241Z,19.40
2023-07-18T06:17:24.290Z,19.60
2023-07-18T06:20:26.040Z,19.70
2023-07-18T06:23:28.265Z,19.90
2023-07-18T06:26:33.106Z,20.20
2023-07-18T06:29:38.109Z,20.50
2023-07-18T06:32:40.247Z,20.70
2023-07-18T06:35:43.277Z,20.70
2023-07-18T06:38:44.928Z,20.80
2023-07-18T06:41:46.893Z,21.10
2023-07-18T06:44:51.736Z,21.30
2023-07-18T06:47:53.749Z,21.50
2023-07-18T06:50:57.618Z,21.60
2023-07-18T06:53:59.273Z,21.70
2023-07-18T06:57:02.062Z,22.00
2023-07-18T07:00:05.401Z,22.20
2023-07-18T07:03:13.664Z,22.30
2023-07-18T07:06:18.066Z,22.50
2023-07-18T07:09:19.740Z,22.90
2023-07-18T07:12:34.611Z,23.10
2023-07-18T07:15:38.205Z,23.20
2023-07-18T07:18:39.862Z,23.30
2023-07-18T07:21:41.534Z,23.50
2023-07-18T07:24:43.295Z,23.60
2023-07-18T07:27:45.366Z,23.70
2023-07-18T07:30:47.325Z,23.70
2023-07-18T07:33:49.138Z,23.80
2023-07-18T07:36:50.781Z,23.80
2023-07-18T07:39:52.597Z,23.90
2023-07-18T07:42:54.264Z,23.80
2023-07-18T07:45:55.900Z,23.90
2023-07-18T07:48:57.629Z,24.00
2023-07-18T07:51:59.378Z,24.20
2023-07-18T07:55:01.237Z,24.40
2023-07-18T07:58:02.975Z,24.60
2023-07-18T08:01:04.785Z,24.60
2023-07-18T08:04:06.873Z,24.70
2023-07-18T08:07:12.144Z,24.90
2023-07-18T08:10:13.883Z,24.80
2023-07-18T08:13:18.155Z,24.80
2023-07-18T08:16:20.793Z,24.70
2023-07-18T08:19:23.967Z,24.80
2023-07-18T08:22:25.921Z,25.00
2023-07-18T08:25:27.664Z,24.90
2023-07-18T08:28:29.565Z,24.70
2023-07-18T08:31:31.429Z,24.90
2023-07-18T08:34:33.200Z,25.00
2023-07-18T08:37:35.120Z,25.00
2023-07-18T08:40:36.724Z,25.10
2023-07-18T08:43:39.068Z,25.20
2023-07-18T08:46:48.172Z,25.30
2023-07-18T08:49:49.952Z,25.30
2023-07-18T08:52:51.836Z,25.60
2023-07-18T08:55:53.932Z,25.80
2023-07-18T08:58:58.255Z,26.00
2023-07-18T09:02:00.095Z,25.80
2023-07-18T09:05:01.827Z,25.90
2023-07-18T09:08:05.332Z,25.90
2023-07-18T09:11:07.036Z,26.00
2023-07-18T09:14:08.675Z,26.20
2023-07-18T09:17:10.414Z,26.40
2023-07-18T09:20:18.338Z,26.50
2023-07-18T09:23:20.080Z,26.60
2023-07-18T09:26:22.650Z,26.70
2023-07-18T09:29:26.315Z,26.50
2023-07-18T09:32:28.083Z,26.40
2023-07-18T09:35:29.768Z,26.40
2023-07-18T09:38:31.895Z,26.60
2023-07-18T09:41:35.699Z,26.50
2023-07-18T09:44:38.861Z,26.50
2023-07-18T09:47:42.936Z,26.60
2023-07-18T09:50:48.622Z,26.90
2023-07-18T09:53:50.322Z,27.30
2023-07-18T09:56:54.168Z,27.40
2023-07-18T10:00:01.889Z,27.70
2023-07-18T10:03:04.643Z,27.60
2023-07-18T10:06:10.889Z,27.80
2023-07-18T10:09:13.768Z,27.90
2023-07-18T10:12:15.439Z,28.00
2023-07-18T10:15:17.224Z,28.10
2023-07-18T10:18:19.527Z,28.00
2023-07-18T10:21:32.735Z,27.70
2023-07-18T10:24:34.413Z,27.80
2023-07-18T10:27:42.061Z,28.00
2023-07-18T10:30:45.593Z,28.10
2023-07-18T10:34:07.633Z,28.30
2023-07-18T10:37:09.419Z,28.70
2023-07-18T10:40:11.945Z,28.90
2023-07-18T10:43:17.999Z,29.00
2023-07-18T10:46:21.145Z,29.00
2023-07-18T10:49:30.266Z,29.10
2023-07-18T10:52:33.643Z,29.00
2023-07-18T10:55:35.283Z,28.90
2023-07-18T10:58:36.878Z,28.80
2023-07-18T11:01:40.463Z,29.00
2023-07-18T11:04:42.201Z,29.20
2023-07-18T11:07:47.449Z,29.10
2023-07-18T11:10:54.426Z,28.90
2023-07-18T11:13:56.046Z,28.70
2023-07-18T11:16:57.981Z,28.70
2023-07-18T11:19:59.663Z,28.90
2023-07-18T11:23:01.687Z,29.00
2023-07-18T11:26:17.771Z,28.80
2023-07-18T11:29:26.280Z,28.90
2023-07-18T11:32:33.562Z,28.80
2023-07-18T11:35:35.687Z,28.90
2023-07-18T11:38:39.711Z,29.00
2023-07-18T11:41:41.711Z,29.10
2023-07-18T11:44:43.617Z,28.80
2023-07-18T11:47:47.323Z,29.00
2023-07-18T11:50:49.649Z,29.20
2023-07-18T11:53:53.277Z,29.40
2023-07-18T11:56:55.041Z,29.50
2023-07-18T11:59:56.668Z,29.10
2023-07-18T12:02:58.791Z,29.10
2023-07-18T12:06:00.527Z,29.20
2023-07-18T12:09:02.219Z,29.30
2023-07-18T12:12:04.792Z,29.40
2023-07-18T12:15:10.055Z,29.50
2023-07-18T12:18:12.724Z,29.60
2023-07-18T12:21:15.936Z,29.60
2023-07-18T12:24:19.560Z,29.60
2023-07-18T12:27:21.301Z,29.50
2023-07-18T12:30:22.914Z,29.50
2023-07-18T12:33:24.747Z,29.70
2023-07-18T12:36:26.584Z,29.80
2023-07-18T12:39:28.288Z,29.70
2023-07-18T12:42:29.890Z,29.30
2023-07-18T12:45:31.520Z,29.40
2023-07-18T12:48:33.238Z,29.50
2023-07-18T12:51:34.974Z,29.50
2023-07-18T12:54:36.650Z,29.60
2023-07-18T12:57:39.677Z,29.80
2023-07-18T13:00:41.674Z,29.70
2023-07-18T13:03:43.368Z,29.70
2023-07-18T13:06:45.118Z,29.60
2023-07-18T13:09:46.756Z,29.70
2023-07-18T13:12:48.395Z,29.80
2023-07-18T13:15:50.083Z,29.90
2023-07-18T13:18:51.906Z,29.80
2023-07-18T13:21:55.946Z,29.90
2023-07-18T13:24:57.594Z,30.00
2023-07-18T13:27:59.606Z,30.00
2023-07-18T13:31:01.306Z,30.00
2023-07-18T13:34:06.366Z,30.20
2023-07-18T13:37:08.042Z,30.10
2023-07-18T13:40:09.814Z,30.00
2023-07-18T13:43:11.532Z,30.20
2023-07-18T13:46:13.962Z,30.40
2023-07-18T13:49:16.034Z,30.20
2023-07-18T13:52:18.499Z,30.20
2023-07-18T13:55:21.262Z,30.40
2023-07-18T13:58:23.389Z,30.30
2023-07-18T14:01:25.305Z,30.40
2023-07-18T14:04:27.114Z,30.40
2023-07-18T14:07:28.824Z,30.50
2023-07-18T14:10:30.601Z,30.70
2023-07-18T14:13:32.786Z,30.90
2023-07-18T14:16:36.028Z,31.20
2023-07-18T14:19:37.867Z,31.40
2023-07-18T14:22:41.716Z,31.30
2023-07-18T14:25:47.829Z,31.30
2023-07-18T14:28:49.445Z,31.10
2023-07-18T14:31:51.416Z,31.30
2023-07-18T14:34:53.175Z,31.30
2023-07-18T14:37:54.828Z,31.60
2023-07-18T14:40:56.548Z,31.80
2023-07-18T14:43:58.378Z,32.00
2023-07-18T14:46:59.979Z,32.00
2023-07-18T14:50:03.541Z,32.10
2023-07-18T14:53:05.305Z,32.00
2023-07-18T14:56:07.234Z,31.90
2023-07-18T14:59:08.930Z,32.10
2023-07-18T15:02:10.574Z,32.20
2023-07-18T15:05:12.249Z,32.20
2023-07-18T15:08:14.120Z,32.20
2023-07-18T15:11:15.749Z,32.30
2023-07-18T15:14:17.714Z,32.50
2023-07-18T15:17:19.354Z,32.40
2023-07-18T15:20:21.070Z,32.40
2023-07-18T15:23:22.692Z,32.20
2023-07-18T15:26:24.735Z,32.20
2023-07-18T15:29:26.574Z,32.40
2023-07-18T15:32:28.428Z,32.50
2023-07-18T15:35:31.189Z,32.30
2023-07-18T15:38:32.968Z,32.10
2023-07-18T15:41:34.719Z,32.20
2023-07-18T15:44:36.342Z,32.20
2023-07-18T15:47:38.025Z,32.30
2023-07-18T15:50:40.358Z,32.50
2023-07-18T15:53:42.232Z,32.90
2023-07-18T15:56:43.914Z,33.10
2023-07-18T15:59:45.593Z,33.30
2023-07-18T16:02:47.338Z,33.20
2023-07-18T16:05:49.089Z,33.00
2023-07-18T16:08:50.724Z,33.00
2023-07-18T16:11:52.399Z,33.20
2023-07-18T16:14:54.086Z,33.20
2023-07-18T16:17:57.146Z,33.50
2023-07-18T16:20:58.970Z,33.80
2023-07-18T16:24:00.723Z,34.00
2023-07-18T16:27:03.263Z,34.30
2023-07-18T16:30:05.535Z,34.50
2023-07-18T16:33:07.310Z,34.50
2023-07-18T16:36:09.441Z,34.70
2023-07-18T16:39:11.648Z,34.70
2023-07-18T16:45:24.122Z,35.10
2023-07-18T16:48:30.956Z,34.50
2023-07-18T16:51:33.056Z,34.40
2023-07-18T16:54:34.771Z,34.50
2023-07-18T16:57:36.477Z,34.80
2023-07-18T17:00:39.235Z,34.00
2023-07-18T17:03:41.622Z,34.10
2023-07-18T17:06:43.242Z,34.50
2023-07-18T17:09:44.943Z,34.50
2023-07-18T17:12:46.600Z,34.70
2023-07-18T17:15:48.466Z,35.20
2023-07-18T17:18:50.189Z,35.40
2023-07-18T17:21:52.228Z,35.50
2023-07-18T17:24:53.982Z,35.80
2023-07-18T17:27:55.945Z,35.90
2023-07-18T17:30:58.120Z,35.80
2023-07-18T17:34:02.165Z,35.60
2023-07-18T17:37:04.792Z,35.30
2023-07-18T17:40:08.917Z,35.10
2023-07-18T17:43:10.584Z,34.70
2023-07-18T17:46:12.305Z,34.50
2023-07-18T17:49:14.481Z,34.50
2023-07-18T17:52:16.561Z,34.50
2023-07-18T17:55:18.384Z,34.80
2023-07-18T17:58:19.986Z,35.00
2023-07-18T18:01:21.985Z,34.80
2023-07-18T18:04:23.910Z,34.40
2023-07-18T18:07:25.581Z,33.90
2023-07-18T18:10:27.281Z,33.80
2023-07-18T18:13:29.437Z,33.60
2023-07-18T18:16:31.336Z,33.40
2023-07-18T18:19:33.165Z,33.20
2023-07-18T18:22:36.144Z,33.00
2023-07-18T18:25:38.201Z,32.80
2023-07-18T18:28:39.941Z,32.80
2023-07-18T18:31:42.270Z,32.70
2023-07-18T18:34:56.918Z,32.50
2023-07-18T18:38:05.717Z,32.30
2023-07-18T18:41:07.422Z,31.90
2023-07-18T18:44:09.177Z,31.30
2023-07-18T18:47:10.809Z,30.70
2023-07-18T18:50:12.605Z,30.20
2023-07-18T18:53:14.336Z,30.00
2023-07-18T18:56:15.985Z,29.60
2023-07-18T18:59:17.575Z,29.40
2023-07-18T19:02:19.528Z,29.20
2023-07-18T19:05:21.508Z,29.00
2023-07-18T19:08:23.202Z,28.80
2023-07-18T19:11:27.750Z,28.60
2023-07-18T19:14:29.624Z,28.40
2023-07-18T19:17:31.366Z,28.20
2023-07-18T19:20:33.146Z,28.00
2023-07-18T19:23:37.634Z,27.90
2023-07-18T19:26:39.665Z,27.70
2023-07-18T19:29:41.733Z,27.60
2023-07-18T19:32:43.464Z,27.30
2023-07-18T19:35:45.244Z,27.10
2023-07-18T19:38:46.910Z,26.90
2023-07-18T19:41:48.709Z,26.80
2023-07-18T19:44:50.429Z,26.70
2023-07-18T19:47:52.071Z,26.60
2023-07-18T19:50:54.008Z,26.50
2023-07-18T19:53:56.985Z,26.40
2023-07-18T19:56:58.599Z,26.30
2023-07-18T20:00:00.264Z,26.20
2023-07-18T20:03:04.435Z,26.10
2023-07-18T20:06:06.185Z,25.90
2023-07-18T20:09:07.932Z,25.60
2023-07-18T20:12:09.750Z,25.40
2023-07-18T20:15:12.082Z,25.20
2023-07-18T20:18:15.205Z,25.00
2023-07-18T20:21:17.072Z,24.80
2023-07-18T20:24:18.877Z,24.70
2023-07-18T20:27:20.525Z,24.60
2023-07-18T20:30:22.153Z,24.60
2023-07-18T20:33:23.903Z,24.50
2023-07-18T20:36:25.618Z,24.50
2023-07-18T20:39:27.253Z,24.60
2023-07-18T20:42:29.463Z,24.60
2023-07-18T20:45:31.541Z,24.60
2023-07-18T20:48:36.952Z,24.60
2023-07-18T20:51:41.188Z,24.50
2023-07-18T20:54:42.833Z,24.50
2023-07-18T20:57:45.661Z,24.40
2023-07-18T21:00:48.405Z,24.40
2023-07-18T21:03:50.149Z,24.40
2023-07-18T21:06:52.604Z,24.40
2023-07-18T21:09:54.301Z,24.30
2023-07-18T21:12:56.066Z,24.20
2023-07-18T21:15:57.982Z,24.10
2023-07-18T21:18:59.810Z,24.10
2023-07-18T21:22:01.518Z,24.00
2023-07-18T21:25:03.305Z,24.00
2023-07-18T21:28:05.241Z,23.90
2023-07-18T21:31:06.862Z,24.00
2023-07-18T21:34:08.492Z,23.90
2023-07-18T21:37:10.126Z,23.90
2023-07-18T21:40:11.980Z,23.80
2023-07-18T21:43:13.703Z,23.80
2023-07-18T21:46:15.565Z,23.80
2023-07-18T21:49:18.272Z,23.80
2023-07-18T21:52:19.892Z,23.80
2023-07-18T21:55:21.654Z,23.60
2023-07-18T21:58:23.378Z,23.50
2023-07-18T22:01:25.154Z,23.40
2023-07-18T22:04:26.916Z,23.30
2023-07-18T22:07:29.042Z,23.20
2023-07-18T22:10:31.982Z,23.10
2023-07-18T22:13:34.002Z,23.10
2023-07-18T22:16:35.856Z,23.10
2023-07-18T22:19:37.698Z,23.00
2023-07-18T22:22:40.485Z,23.00
2023-07-18T22:25:42.210Z,22.90
2023-07-18T22:28:44.052Z,22.90
2023-07-18T22:31:45.768Z,22.80
2023-07-18T22:34:47.697Z,22.80
2023-07-18T22:37:49.354Z,22.80
2023-07-18T22:40:51.042Z,22.80
2023-07-18T22:43:53.140Z,22.60
2023-07-18T22:46:54.972Z,22.50
2023-07-18T22:49:56.677Z,22.40
2023-07-18T22:53:01.322Z,22.40
2023-07-18T22:56:03.603Z,22.40
2023-07-18T22:59:05.350Z,22.40
2023-07-18T23:02:08.022Z,22.40
2023-07-18T23:05:09.988Z,22.40
2023-07-18T23:08:12.231Z,22.20
2023-07-18T23:11:13.840Z,22.10
2023-07-18T23:14:15.574Z,22.10
2023-07-18T23:17:17.172Z,22.10
2023-07-18T23:20:18.853Z,22.10
2023-07-18T23:23:20.566Z,22.20
2023-07-18T23:26:22.552Z,22.10
2023-07-18T23:29:25.080Z,22.10
2023-07-18T23:32:26.785Z,22.10
2023-07-18T23:35:28.582Z,22.10
2023-07-18T23:38:30.201Z,22.00
2023-07-18T23:41:31.840Z,21.80
2023-07-18T23:44:33.881Z,21.60
2023-07-18T23:47:35.507Z,21.60
2023-07-18T23:50:37.186Z,21.50
2023-07-18T23:53:38.839Z,21.40
2023-07-18T23:56:40.740Z,21.30
2023-07-18T23:59:42.408Z,21.30
